Time;durP1;ratioP1;P1;durP2;ratioP2;P2;SDS_P1;SDS_P2;PMS_P1;PMS_P2;Temp;Humidity;BMP_temperature;BMP_pressure;BME280_temperature;BME280_humidity;BME280_pressure;Samples;Min_cycle;Max_cycle;Signal;HPM_P1;HPM_P2
2021/03/24 00:01:47;;;;;;;53.05;33.02;;;;;;;3.01;77.72;97543.55;1865014;76;25667;-85
2021/03/24 00:04:14;;;;;;;57.48;33.45;;;;;;;2.99;77.62;97545.54;1865031;76;25655;-86
2021/03/24 00:06:42;;;;;;;52.53;32.15;;;;;;;3.01;77.71;97546.22;1865106;76;25713;-87
2021/03/24 00:09:14;;;;;;;53.95;33.28;;;;;;;3.06;77.80;97535.88;1865173;76;27516;-86
2021/03/24 00:11:42;;;;;;;55.83;32.88;;;;;;;3.08;77.74;97551.23;1865032;76;25714;-86
2021/03/24 00:14:09;;;;;;;56.13;34.03;;;;;;;3.04;77.75;97548.54;1860260;76;26143;-86
2021/03/24 00:16:37;;;;;;;53.90;32.55;;;;;;;3.05;77.84;97545.38;1860138;77;25764;-86
2021/03/24 00:19:04;;;;;;;50.40;32.00;;;;;;;3.08;77.87;97549.90;1860225;77;25805;-86
2021/03/24 00:21:31;;;;;;;54.27;33.55;;;;;;;3.08;77.87;97551.73;1860293;77;27537;-86
2021/03/24 00:23:59;;;;;;;54.42;31.68;;;;;;;3.08;77.93;97547.23;1859862;77;26198;-86
2021/03/24 00:26:27;;;;;;;52.98;32.73;;;;;;;3.08;77.92;97549.06;1859688;77;25290;-86
2021/03/24 00:28:55;;;;;;;47.90;31.07;;;;;;;3.05;77.92;97545.38;1859525;77;25636;-86
2021/03/24 00:31:23;;;;;;;51.68;30.95;;;;;;;3.07;77.94;97542.05;1859629;77;25783;-86
2021/03/24 00:33:50;;;;;;;56.68;32.48;;;;;;;3.08;77.97;97545.06;1859497;77;27492;-86
2021/03/24 00:36:19;;;;;;;54.65;32.00;;;;;;;3.05;78.01;97546.70;1859643;77;26052;-86
2021/03/24 00:38:46;;;;;;;51.60;30.77;;;;;;;3.03;78.00;97538.86;1859506;77;25934;-86
2021/03/24 00:41:14;;;;;;;54.25;33.13;;;;;;;3.06;78.05;97538.55;1859567;77;25775;-86
2021/03/24 00:43:41;;;;;;;55.78;32.38;;;;;;;3.06;77.92;97549.22;1859757;77;26390;-85
2021/03/24 00:46:09;;;;;;;51.53;30.30;;;;;;;3.03;77.99;97550.86;1859644;77;28302;-86
2021/03/24 00:48:37;;;;;;;54.48;32.95;;;;;;;3.03;78.07;97551.36;1859435;77;25682;-86
2021/03/24 00:51:06;;;;;;;52.50;30.88;;;;;;;3.05;78.09;97548.88;1859557;77;26221;-85
2021/03/24 00:53:35;;;;;;;46.75;28.80;;;;;;;3.10;78.12;97549.25;1859622;77;25763;-85
2021/03/24 00:56:02;;;;;;;49.13;30.43;;;;;;;3.08;77.86;97551.23;1859545;77;25841;-85
2021/03/24 00:58:30;;;;;;;53.60;31.57;;;;;;;3.00;77.92;97551.21;1859553;77;27558;-86
2021/03/24 01:00:57;;;;;;;48.90;30.08;;;;;;;3.02;78.08;97547.86;1859606;77;26081;-86
2021/03/24 01:03:24;;;;;;;41.53;27.42;;;;;;;3.01;77.94;97543.55;1859614;77;25289;-86
2021/03/24 01:05:53;;;;;;;49.80;29.35;;;;;;;3.04;78.04;97555.20;1859505;77;26249;-86
2021/03/24 01:08:24;;;;;;;44.63;29.27;;;;;;;3.03;78.08;97552.20;1859671;77;25805;-86
2021/03/24 01:10:54;;;;;;;47.48;29.70;;;;;;;3.02;78.08;97554.52;1859653;77;28433;-85
2021/03/24 01:13:24;;;;;;;40.98;25.00;;;;;;;2.98;78.03;97549.20;1857256;77;26071;-85
2021/03/24 01:15:51;;;;;;;45.05;29.12;;;;;;;2.99;77.97;97547.37;1855271;77;25655;-86
2021/03/24 01:18:22;;;;;;;47.30;28.90;;;;;;;2.93;78.08;97554.66;1855275;77;26361;-85
2021/03/24 01:20:49;;;;;;;43.92;28.05;;;;;;;2.93;78.16;97551.50;1855383;77;26158;-86
2021/03/24 01:23:17;;;;;;;45.58;28.15;;;;;;;2.91;78.19;97548.14;1855229;77;27486;-86
2021/03/24 01:25:45;;;;;;;50.43;30.95;;;;;;;2.91;78.23;97553.48;1855123;77;26601;-86
2021/03/24 01:28:21;;;;;;;41.15;26.80;;;;;;;2.94;78.30;97557.17;1855323;76;25652;-86
2021/03/24 01:30:48;;;;;;;44.77;27.50;;;;;;;2.94;78.29;97555.84;1855201;77;25633;-85
2021/03/24 01:33:16;;;;;;;40.63;26.95;;;;;;;2.90;78.18;97563.80;1855357;76;25652;-86
2021/03/24 01:35:44;;;;;;;36.35;25.48;;;;;;;2.93;78.08;97563.99;1855319;76;28373;-85
2021/03/24 01:38:12;;;;;;;43.15;27.37;;;;;;;2.84;78.11;97560.45;1855376;76;26100;-85
2021/03/24 01:40:47;;;;;;;39.58;26.17;;;;;;;2.84;78.20;97559.96;1855300;77;25681;-84
2021/03/24 01:43:25;;;;;;;40.05;26.48;;;;;;;2.89;78.25;97560.33;1855340;77;25755;-84
2021/03/24 01:46:21;;;;;;;40.35;25.95;;;;;;;2.96;78.25;97561.02;1855020;77;25751;-84
2021/03/24 01:49:06;;;;;;;40.45;26.27;;;;;;;2.97;78.19;97559.52;1855389;77;28407;-83
2021/03/24 01:52:00;;;;;;;43.68;28.17;;;;;;;2.96;78.23;97572.52;1848339;77;25717;-83
2021/03/24 01:54:35;;;;;;;42.65;28.25;;;;;;;2.99;78.27;97564.70;1855302;77;25770;-82
2021/03/24 01:57:08;;;;;;;45.98;27.62;;;;;;;3.03;78.29;97576.20;1853991;77;25364;-83
2021/03/24 01:59:37;;;;;;;41.13;27.37;;;;;;;3.01;78.15;97572.88;1854155;77;25727;-83
2021/03/24 02:02:09;;;;;;;38.25;25.97;;;;;;;3.01;78.24;97571.55;1855323;76;28473;-83
2021/03/24 02:04:36;;;;;;;;;;;;;;;3.03;78.22;97568.20;1857668;77;25655;-82
2021/03/24 02:07:12;;;;;;;42.23;26.10;;;;;;;2.98;78.29;97566.53;1855308;77;25730;-83
2021/03/24 02:10:12;;;;;;;38.05;25.82;;;;;;;3.01;78.34;97574.22;1855330;77;25277;-83
2021/03/24 02:12:47;;;;;;;40.08;26.05;;;;;;;3.03;78.33;97570.87;1855157;76;25764;-83
2021/03/24 02:15:31;;;;;;;40.58;26.17;;;;;;;3.07;78.29;97570.89;1854248;77;27488;-83
2021/03/24 02:18:01;;;;;;;39.78;27.45;;;;;;;3.06;78.25;97571.89;1855259;77;26041;-82
2021/03/24 02:20:49;;;;;;;38.25;26.57;;;;;;;3.05;78.28;97571.55;1855387;77;25624;-82
2021/03/24 02:23:34;;;;;;;39.08;25.20;;;;;;;3.08;78.26;97576.57;1855407;77;26127;-83
2021/03/24 02:26:30;;;;;;;39.80;26.42;;;;;;;3.06;78.23;97575.89;1855364;76;25954;-82
2021/03/24 02:29:01;;;;;;;39.83;26.17;;;;;;;3.01;78.22;97572.88;1855324;77;27557;-82
2021/03/24 02:31:31;;;;;;;40.90;26.55;;;;;;;2.96;78.24;97572.52;1855177;77;25293;-82
2021/03/24 02:34:03;;;;;;;39.85;26.17;;;;;;;2.93;78.23;97576.83;1855253;77;25938;-83
2021/03/24 02:36:32;;;;;;;38.33;25.30;;;;;;;2.87;78.30;97574.81;1855585;77;26110;-83
2021/03/24 02:39:04;;;;;;;36.50;24.80;;;;;;;2.85;78.36;97571.47;1855297;77;25649;-83
2021/03/24 02:41:32;;;;;;;39.18;24.25;;;;;;;2.86;78.44;97577.97;1855464;77;27768;-83
2021/03/24 02:44:00;;;;;;;38.08;24.70;;;;;;;2.85;78.44;97578.13;1855112;76;26074;-83
2021/03/24 02:46:29;;;;;;;39.33;25.23;;;;;;;2.81;78.49;97586.09;1855207;76;25689;-82
2021/03/24 02:48:59;;;;;;;39.78;25.35;;;;;;;2.81;78.55;97587.42;1855189;77;26170;-82
2021/03/24 02:51:27;;;;;;;29.80;22.07;;;;;;;2.82;78.60;97582.44;1855194;77;25453;-82
2021/03/24 02:53:54;;;;;;;36.55;24.72;;;;;;;2.86;78.49;97585.97;1855279;77;27561;-82
2021/03/24 02:56:22;;;;;;;35.75;24.18;;;;;;;2.84;78.50;97581.78;1855113;76;25661;-82
2021/03/24 02:58:52;;;;;;;32.53;23.47;;;;;;;2.83;78.36;97586.78;1855300;77;26216;-82
2021/03/24 03:01:25;;;;;;;33.53;23.27;;;;;;;2.84;78.41;97589.78;1855247;77;26318;-82
2021/03/24 03:04:00;;;;;;;34.70;23.40;;;;;;;2.85;78.35;97588.80;1855241;77;25716;-82
2021/03/24 03:06:29;;;;;;;34.08;23.65;;;;;;;2.84;78.44;97593.78;1855245;77;26674;-83
2021/03/24 03:09:14;;;;;;;35.90;24.43;;;;;;;2.78;78.29;97595.73;1855133;76;26342;-82
2021/03/24 03:12:02;;;;;;;33.75;22.60;;;;;;;2.73;78.42;97590.06;1820204;78;25636;-82
2021/03/24 03:14:37;;;;;;;32.80;23.35;;;;;;;2.71;78.48;97593.37;1846120;77;25757;-82
2021/03/24 03:17:21;;;;;;;33.95;24.50;;;;;;;2.63;78.59;97599.50;1846236;77;25774;-82
2021/03/24 03:20:09;;;;;;;33.92;22.10;;;;;;;2.65;78.65;97587.36;1846112;77;27472;-82
2021/03/24 03:22:47;;;;;;;32.98;24.30;;;;;;;2.62;78.70;97592.99;1846194;77;25642;-82
2021/03/24 03:25:19;;;;;;;33.40;23.15;;;;;;;2.59;78.83;97593.30;1846209;77;25772;-83
2021/03/24 03:27:49;;;;;;;37.40;25.10;;;;;;;2.62;78.84;97590.33;1846328;77;26328;-83
2021/03/24 03:30:22;;;;;;;36.55;24.72;;;;;;;2.58;78.87;97597.80;1846276;77;25744;-83
2021/03/24 03:32:51;;;;;;;39.38;24.90;;;;;;;2.60;78.98;97592.31;1846143;77;27478;-83
2021/03/24 03:35:22;;;;;;;35.52;25.77;;;;;;;2.58;78.88;97591.13;1846129;77;25733;-83
2021/03/24 03:37:56;;;;;;;35.08;23.32;;;;;;;2.54;78.91;97594.59;1846439;77;25674;-83
2021/03/24 03:40:27;;;;;;;43.60;27.15;;;;;;;2.60;79.04;97593.64;1846131;77;25712;-82
2021/03/24 03:42:56;;;;;;;39.70;26.37;;;;;;;2.60;79.02;97593.14;1846318;77;25719;-82
2021/03/24 03:45:25;;;;;;;41.98;27.02;;;;;;;2.67;79.03;97597.34;1846168;77;27547;-82
2021/03/24 03:47:52;;;;;;;39.88;25.97;;;;;;;2.72;79.00;97591.89;1846235;77;26242;-82
2021/03/24 03:50:24;;;;;;;40.17;27.50;;;;;;;2.74;78.90;97589.91;1846311;77;25737;-82
2021/03/24 03:53:15;;;;;;;38.05;19.35;;;;;;;2.76;78.90;97587.08;1846350;77;25693;-83
2021/03/24 03:55:50;;;;;;;40.65;26.45;;;;;;;2.78;78.86;97587.73;1839896;77;26154;-82
2021/03/24 03:58:26;;;;;;;39.63;26.60;;;;;;;2.71;78.76;97594.21;1846347;77;27487;-83
2021/03/24 04:01:39;;;;;;;42.73;27.27;;;;;;;2.74;78.84;97592.57;1846199;77;25758;-82
2021/03/24 04:04:26;;;;;;;;;;;;;;;2.76;78.88;97591.92;1849142;77;25702;-83
2021/03/24 04:07:13;;;;;;;41.02;29.00;;;;;;;2.78;78.95;97597.06;1846492;77;25613;-83
2021/03/24 04:09:42;;;;;;;44.58;28.38;;;;;;;2.69;78.80;97596.69;1845601;77;25829;-82
2021/03/24 04:12:16;;;;;;;38.60;26.68;;;;;;;2.71;78.91;97604.03;1846323;77;28473;-82
2021/03/24 04:14:45;;;;;;;43.80;27.98;;;;;;;2.75;78.89;97598.73;1846280;77;25921;-82
2021/03/24 04:17:19;;;;;;;42.27;28.50;;;;;;;2.80;78.86;97596.42;1846410;77;25773;-82
2021/03/24 04:19:50;;;;;;;42.20;27.85;;;;;;;2.83;78.78;97601.44;1846483;77;25675;-81
2021/03/24 04:22:26;;;;;;;45.25;29.57;;;;;;;2.87;78.69;97602.81;1846483;77;26586;-81
2021/03/24 04:24:56;;;;;;;42.25;29.67;;;;;;;2.88;78.67;97599.98;1846385;77;28436;-82
2021/03/24 04:27:28;;;;;;;42.48;29.10;;;;;;;2.90;78.69;97605.13;1846354;77;25710;-82
2021/03/24 04:30:03;;;;;;;32.63;21.40;;;;;;;2.90;78.69;97614.47;1846480;77;25814;-82
2021/03/24 04:32:30;;;;;;;46.08;28.85;;;;;;;2.88;78.71;97608.48;1845642;77;26357;-82
2021/03/24 04:34:58;;;;;;;45.78;30.15;;;;;;;2.80;78.63;97615.91;1846307;77;25749;-82
2021/03/24 04:37:33;;;;;;;44.38;29.27;;;;;;;2.77;78.70;97618.08;1846327;77;27544;-81
2021/03/24 04:40:09;;;;;;;47.48;31.35;;;;;;;2.77;78.76;97619.42;1845897;77;25733;-82
2021/03/24 04:42:43;;;;;;;44.53;30.30;;;;;;;2.82;78.76;97626.42;1846448;77;25747;-82
2021/03/24 04:45:40;;;;;;;49.05;31.70;;;;;;;2.88;78.74;97623.14;1846450;77;26638;-82
2021/03/24 04:48:15;;;;;;;47.23;31.05;;;;;;;2.90;78.71;97629.13;1838065;77;25743;-82
2021/03/24 04:50:51;;;;;;;43.78;29.70;;;;;;;2.92;78.68;97621.81;1845943;77;27540;-82
2021/03/24 04:53:20;;;;;;;51.18;31.73;;;;;;;2.94;78.66;97621.66;1845274;77;25754;-82
2021/03/24 04:55:50;;;;;;;49.13;32.45;;;;;;;2.88;78.55;97631.14;1846420;77;25268;-81
2021/03/24 04:58:34;;;;;;;47.67;33.00;;;;;;;2.79;78.62;97633.40;1846259;77;25508;-83
2021/03/24 05:01:16;;;;;;;48.38;32.33;;;;;;;2.84;78.82;97635.11;1846371;77;25918;-83
2021/03/24 05:03:46;;;;;;;52.67;32.55;;;;;;;2.90;78.79;97631.80;1846411;77;27464;-83
2021/03/24 05:06:28;;;;;;;49.75;33.30;;;;;;;2.94;78.74;97631.83;1846181;77;25674;-81
2021/03/24 05:08:55;;;;;;;57.37;34.10;;;;;;;2.96;78.67;97629.01;1846620;77;25638;-82
2021/03/24 05:11:49;;;;;;;49.70;32.35;;;;;;;3.00;78.74;97627.22;1846342;77;26496;-83
2021/03/24 05:14:31;;;;;;;53.08;33.10;;;;;;;3.05;78.64;97629.38;1846182;77;25667;-82
2021/03/24 05:17:22;;;;;;;53.83;34.57;;;;;;;3.06;78.53;97634.56;1846586;77;27666;-84
2021/03/24 05:19:50;;;;;;;59.73;37.85;;;;;;;2.97;78.39;97632.02;1845347;77;25806;-83
2021/03/24 05:22:34;;;;;;;55.70;36.08;;;;;;;2.94;78.49;97629.16;1846254;77;25794;-82
2021/03/24 05:25:16;;;;;;;52.38;32.33;;;;;;;2.96;78.54;97633.84;1841647;77;25773;-83
2021/03/24 05:28:03;;;;;;;51.40;31.53;;;;;;;2.94;78.51;97631.83;1846667;77;25785;-82
2021/03/24 05:30:36;;;;;;;54.75;32.53;;;;;;;2.88;78.55;97637.31;1846342;77;26855;-82
2021/03/24 05:33:14;;;;;;;59.08;35.13;;;;;;;2.86;78.50;97633.97;1846146;77;25380;-82
2021/03/24 05:35:53;;;;;;;53.17;34.13;;;;;;;2.81;78.53;97640.25;1846204;77;25679;-82
2021/03/24 05:38:41;;;;;;;49.90;30.88;;;;;;;2.80;78.61;97637.73;1846384;77;25675;-82
2021/03/24 05:41:14;;;;;;;60.33;35.88;;;;;;;2.81;78.65;97642.08;1846373;77;25793;-82
2021/03/24 05:44:38;;;;;;;59.33;36.05;;;;;;;2.75;78.64;97640.89;1846356;77;27554;-83
2021/03/24 05:47:52;;;;;;;62.27;38.08;;;;;;;2.77;78.71;97647.41;1846245;77;26294;-81
2021/03/24 05:50:42;;;;;;;54.15;34.20;;;;;;;2.74;78.77;97647.71;1846161;77;25694;-82
2021/03/24 05:53:33;;;;;;;61.13;35.73;;;;;;;2.74;78.74;97647.22;1846248;77;25647;-82
2021/03/24 05:56:28;;;;;;;57.88;34.15;;;;;;;2.78;78.84;97647.72;1846405;77;25804;-82
2021/03/24 05:59:26;;;;;;;56.48;32.58;;;;;;;2.76;78.82;97646.57;1846202;77;27533;-82
2021/03/24 06:01:58;;;;;;;58.38;35.35;;;;;;;2.80;78.78;97653.73;1846026;77;25794;-82
2021/03/24 06:04:33;;;;;;;55.00;34.10;;;;;;;2.83;78.81;97658.77;1846426;77;25750;-82
2021/03/24 06:07:29;;;;;;;58.60;35.17;;;;;;;2.88;78.81;97653.81;1844409;77;26666;-83
2021/03/24 06:10:28;;;;;;;58.63;34.53;;;;;;;2.85;78.64;97654.11;1846257;77;25698;-82
2021/03/24 06:13:35;;;;;;;53.87;32.98;;;;;;;2.90;78.71;97655.80;1846363;77;27560;-82
2021/03/24 06:16:43;;;;;;;53.87;32.93;;;;;;;2.94;78.74;97662.50;1847213;77;25688;-82
2021/03/24 06:19:39;;;;;;;58.33;35.30;;;;;;;2.93;78.67;97659.98;1800082;79;25584;-81
2021/03/24 06:22:18;;;;;;;63.75;35.70;;;;;;;2.95;78.67;97658.84;1800093;79;25723;-82
2021/03/24 06:25:14;;;;;;;54.15;33.58;;;;;;;2.99;78.65;97654.88;1836170;77;25687;-83
2021/03/24 06:27:54;;;;;;;60.35;36.08;;;;;;;2.99;78.60;97660.70;1847407;77;27417;-82
2021/03/24 06:30:36;;;;;;;57.20;36.03;;;;;;;2.93;78.60;97662.16;1846110;77;25707;-82
2021/03/24 06:33:42;;;;;;;59.08;36.95;;;;;;;2.95;78.60;97672.17;1847456;77;25741;-82
2021/03/24 06:36:35;;;;;;;62.65;38.38;;;;;;;2.95;78.64;97666.84;1847346;77;26508;-82
2021/03/24 06:39:32;;;;;;;60.67;37.55;;;;;;;3.00;78.63;97667.22;1797070;77;25851;-82
2021/03/24 06:42:11;;;;;;;57.98;34.95;;;;;;;2.98;78.58;97670.53;1847443;77;28429;-82
2021/03/24 06:45:16;;;;;;;63.73;38.13;;;;;;;2.97;78.56;97677.35;1846853;77;25783;-82
2021/03/24 06:48:13;;;;;;;60.78;38.15;;;;;;;2.89;78.62;97680.32;1847418;77;25737;-82
2021/03/24 06:51:07;;;;;;;64.35;39.33;;;;;;;2.88;78.75;97688.47;1847529;77;25665;-83
2021/03/24 06:54:11;;;;;;;67.58;41.73;;;;;;;2.81;78.74;97692.73;1847350;77;25781;-82
2021/03/24 06:56:53;;;;;;;64.53;38.73;;;;;;;2.85;78.89;97690.95;1847095;77;28454;-84
2021/03/24 06:59:50;;;;;;;64.67;39.40;;;;;;;2.87;78.72;97702.80;1830540;78;25744;-82
2021/03/24 07:02:44;;;;;;;65.70;38.30;;;;;;;2.78;78.79;97702.37;1850925;77;25691;-83
2021/03/24 07:05:43;;;;;;;61.05;35.35;;;;;;;2.75;78.83;97705.37;1833444;78;26470;-83
2021/03/24 07:08:36;;;;;;;67.75;41.70;;;;;;;2.73;78.99;97701.52;1847386;77;26008;-82
2021/03/24 07:11:31;;;;;;;66.37;39.38;;;;;;;2.61;78.82;97701.92;1846866;77;27383;-83
2021/03/24 07:14:33;;;;;;;63.42;36.85;;;;;;;2.66;79.06;97700.45;1847292;77;25639;-83
2021/03/24 07:17:38;;;;;;;66.87;38.45;;;;;;;2.75;79.12;97707.54;1847466;77;25335;-82
2021/03/24 07:20:35;;;;;;;64.72;38.30;;;;;;;2.82;79.10;97714.41;1847358;77;25696;-82
2021/03/24 07:23:17;;;;;;;74.85;42.53;;;;;;;2.86;79.16;97710.45;1837930;77;25703;-82
2021/03/24 07:25:51;;;;;;;88.37;47.70;;;;;;;2.79;79.17;97716.04;1847638;77;28840;-83
2021/03/24 07:28:35;;;;;;;75.87;41.63;;;;;;;2.70;79.05;97719.64;1816926;77;25750;-83
2021/03/24 07:31:34;;;;;;;67.47;38.38;;;;;;;2.66;79.10;97723.59;1847309;77;25783;-83
2021/03/24 07:34:25;;;;;;;60.12;35.23;;;;;;;2.62;79.11;97724.92;1847392;77;25718;-83
2021/03/24 07:37:34;;;;;;;67.00;38.78;;;;;;;2.58;79.19;97722.20;1847659;77;25748;-82
2021/03/24 07:40:46;;;;;;;67.55;37.17;;;;;;;2.57;79.29;97731.19;1847058;77;27604;-83
2021/03/24 07:43:34;;;;;;;67.73;39.43;;;;;;;2.57;79.42;97728.03;1847849;77;25715;-82
2021/03/24 07:46:44;;;;;;;62.43;36.48;;;;;;;2.60;79.43;97728.23;1847554;77;25811;-83
2021/03/24 07:49:35;;;;;;;69.07;37.85;;;;;;;2.60;79.36;97731.73;1792546;79;26652;-82
2021/03/24 07:52:14;;;;;;;62.60;38.05;;;;;;;2.61;79.50;97729.91;1841965;77;25819;-83
2021/03/24 07:55:02;;;;;;;61.48;35.00;;;;;;;2.69;79.64;97734.80;1847301;77;28490;-83
2021/03/24 07:57:50;;;;;;;68.80;39.98;;;;;;;2.72;79.48;97733.66;1847443;77;26226;-83
2021/03/24 08:00:29;;;;;;;60.50;35.50;;;;;;;2.68;79.43;97738.95;1847457;77;25794;-82
2021/03/24 08:03:26;;;;;;;61.90;37.03;;;;;;;2.72;79.54;97742.98;1847523;77;26411;-82
2021/03/24 08:06:13;;;;;;;59.83;37.13;;;;;;;2.78;79.50;97739.69;1847373;77;25818;-83
2021/03/24 08:09:21;;;;;;;59.85;36.10;;;;;;;2.78;79.45;97738.36;1847523;77;27473;-82
2021/03/24 08:12:43;;;;;;;61.00;36.95;;;;;;;2.85;79.50;97737.61;1847037;77;26559;-82
2021/03/24 08:15:52;;;;;;;70.08;37.33;;;;;;;2.95;79.51;97739.33;1847163;77;26177;-83
2021/03/24 08:18:43;;;;;;;64.53;37.90;;;;;;;3.01;79.46;97734.23;1845834;77;26372;-83
2021/03/24 08:21:51;;;;;;;65.72;39.05;;;;;;;3.09;79.42;97738.77;1846305;77;25801;-83
2021/03/24 08:24:30;;;;;;;64.03;38.05;;;;;;;3.04;79.32;97741.89;1846277;77;28039;-83
2021/03/24 08:27:05;;;;;;;66.22;37.73;;;;;;;3.00;79.38;97741.89;1846183;77;25722;-83
2021/03/24 08:29:56;;;;;;;69.32;40.67;;;;;;;3.06;79.45;97741.74;1846246;77;25852;-84
2021/03/24 08:33:10;;;;;;;70.05;41.35;;;;;;;3.12;79.45;97747.80;1846313;77;25632;-84
2021/03/24 08:36:06;;;;;;;68.80;41.68;;;;;;;3.17;79.44;97748.16;1846392;77;25687;-83
2021/03/24 08:39:02;;;;;;;71.65;43.83;;;;;;;3.24;79.45;97746.05;1846269;77;28436;-84
2021/03/24 08:42:07;;;;;;;77.30;46.45;;;;;;;3.31;79.46;97738.73;1846249;77;25695;-83
2021/03/24 08:45:12;;;;;;;84.13;50.28;;;;;;;3.36;79.39;97747.12;1845841;76;25731;-83
2021/03/24 08:47:42;;;;;;;69.77;41.40;;;;;;;3.41;79.35;97744.80;1846290;77;25829;-83
2021/03/24 08:50:33;;;;;;;75.22;42.67;;;;;;;3.43;79.28;97744.98;1846299;77;25868;-83
2021/03/24 08:53:30;;;;;;;85.70;49.10;;;;;;;3.45;79.22;97744.83;1846385;77;27466;-83
2021/03/24 08:56:05;;;;;;;87.25;51.23;;;;;;;3.49;79.17;97744.86;1846240;77;25719;-83
2021/03/24 08:58:35;;;;;;;78.75;49.63;;;;;;;3.51;79.16;97738.84;1845519;77;25708;-83
2021/03/24 09:01:42;;;;;;;83.75;50.50;;;;;;;3.53;79.08;97747.03;1846401;77;26394;-83
2021/03/24 09:04:27;;;;;;;79.25;45.63;;;;;;;3.53;79.05;97740.36;1846393;77;25687;-83
2021/03/24 09:07:26;;;;;;;74.10;44.60;;;;;;;3.53;79.04;97739.03;1843078;77;27565;-83
2021/03/24 09:10:11;;;;;;;75.97;45.12;;;;;;;3.55;79.04;97737.53;1846269;77;25639;-83
2021/03/24 09:12:50;;;;;;;68.95;42.80;;;;;;;3.56;79.03;97737.87;1846344;77;25719;-83
2021/03/24 09:15:48;;;;;;;80.57;45.17;;;;;;;3.58;79.00;97736.73;1843668;77;26545;-83
2021/03/24 09:18:32;;;;;;;69.25;43.25;;;;;;;3.57;78.94;97739.05;1847549;77;25694;-83
2021/03/24 09:21:16;;;;;;;70.67;44.03;;;;;;;3.58;78.92;97746.56;1847488;77;28699;-83
2021/03/24 09:24:28;;;;;;;68.00;39.45;;;;;;;3.59;78.92;97743.75;1811685;77;26285;-84
2021/03/24 09:27:31;;;;;;;58.98;34.63;;;;;;;3.61;78.93;97739.09;1847661;77;25711;-83
2021/03/24 09:30:21;;;;;;;;;;;;;;;3.48;78.90;97745.85;1804135;77;26397;-84
2021/03/24 09:33:13;;;;;;;78.47;47.05;;;;;;;3.51;79.07;97748.18;1847527;77;25850;-83
2021/03/24 09:35:55;;;;;;;103.05;57.45;;;;;;;3.57;79.16;97741.73;1847617;77;28444;-83
2021/03/24 09:38:25;;;;;;;152.67;92.97;;;;;;;3.63;79.07;97741.07;1833440;77;26447;-84
2021/03/24 09:40:58;;;;;;;146.62;100.75;;;;;;;3.71;79.06;97742.96;1847556;77;25310;-83
2021/03/24 09:43:33;;;;;;;123.00;77.75;;;;;;;3.78;79.00;97745.81;1841986;77;25735;-83
2021/03/24 09:46:09;;;;;;;101.62;64.95;;;;;;;3.82;78.91;97740.50;1847567;77;25753;-83
2021/03/24 09:48:54;;;;;;;91.50;55.70;;;;;;;3.84;78.80;97738.02;1846619;77;27679;-84
2021/03/24 09:51:39;;;;;;;75.30;47.27;;;;;;;3.90;78.82;97739.19;1847369;77;26058;-84
2021/03/24 09:54:27;;;;;;;72.42;46.23;;;;;;;3.93;78.68;97737.53;1847484;77;25761;-84
2021/03/24 09:57:11;;;;;;;83.47;51.10;;;;;;;3.94;78.62;97739.21;1847475;77;26500;-84
2021/03/24 10:00:08;;;;;;;80.87;50.12;;;;;;;3.96;78.58;97735.88;1830522;78;25310;-84
2021/03/24 10:02:41;;;;;;;81.28;46.60;;;;;;;3.96;78.53;97735.39;1814467;78;29328;-84
2021/03/24 10:05:13;;;;;;;104.53;50.88;;;;;;;3.97;78.50;97733.06;1814543;79;25780;-84
2021/03/24 10:07:43;;;;;;;148.57;62.15;;;;;;;4.01;78.46;97735.38;1814843;79;25662;-83
2021/03/24 10:10:26;;;;;;;135.10;62.60;;;;;;;4.05;78.46;97736.73;1814508;79;25704;-84
2021/03/24 10:15:56;;;;;;;81.85;44.13;;;;;;;4.10;78.41;97728.59;1849495;76;34730;-85
2021/03/24 10:18:29;;;;;;;77.42;43.23;;;;;;;4.05;78.39;97728.72;1819803;78;25633;-86
2021/03/24 10:21:19;;;;;;;86.45;45.92;;;;;;;4.10;78.40;97731.76;1820249;78;28271;-85
2021/03/24 10:23:57;;;;;;;71.45;40.35;;;;;;;4.13;78.37;97735.41;1819904;78;25808;-85
2021/03/24 10:26:30;;;;;;;69.53;39.23;;;;;;;4.15;78.24;97738.77;1820203;78;25772;-85
2021/03/24 10:29:06;;;;;;;67.08;39.85;;;;;;;4.10;78.17;97733.09;1819055;78;25744;-85
2021/03/24 10:31:41;;;;;;;60.48;36.70;;;;;;;4.14;78.18;97731.75;1819628;78;25647;-85
2021/03/24 10:34:20;;;;;;;62.03;36.50;;;;;;;4.15;78.12;97732.09;1820099;78;28503;-85
2021/03/24 10:37:15;;;;;;;66.10;38.40;;;;;;;4.15;78.15;97720.91;1819974;78;25650;-85
2021/03/24 10:39:56;;;;;;;66.37;38.58;;;;;;;4.17;78.12;97726.09;1820084;78;25673;-85
2021/03/24 10:42:47;;;;;;;65.80;40.20;;;;;;;4.20;78.15;97725.77;1820169;78;26139;-84
2021/03/24 10:45:23;;;;;;;77.42;41.53;;;;;;;4.23;78.18;97725.41;1819708;77;25749;-85
2021/03/24 10:47:56;;;;;;;73.75;41.85;;;;;;;4.25;78.12;97721.59;1819513;78;28351;-85
2021/03/24 10:50:50;;;;;;;80.45;42.95;;;;;;;4.26;78.09;97725.09;1819985;78;25741;-84
2021/03/24 10:53:30;;;;;;;81.57;44.13;;;;;;;4.18;78.04;97714.41;1820055;78;25713;-85
2021/03/24 10:56:14;;;;;;;82.80;44.88;;;;;;;4.19;78.15;97719.59;1820078;77;25609;-85
2021/03/24 10:59:04;;;;;;;78.75;43.42;;;;;;;4.23;78.21;97714.73;1820096;78;25804;-85
2021/03/24 11:01:43;;;;;;;81.65;45.95;;;;;;;4.27;78.21;97716.08;1820081;77;27484;-85
2021/03/24 11:04:36;;;;;;;83.07;45.55;;;;;;;4.30;78.13;97721.11;1819854;77;26022;-84
2021/03/24 11:07:18;;;;;;;82.02;44.45;;;;;;;4.30;78.09;97721.11;1820085;78;25720;-85
2021/03/24 11:09:57;;;;;;;83.33;46.08;;;;;;;4.29;78.06;97719.43;1820315;78;26228;-85
2021/03/24 11:12:38;;;;;;;80.17;44.80;;;;;;;4.29;78.03;97719.43;1820060;78;25843;-84
2021/03/24 11:15:23;;;;;;;75.62;43.87;;;;;;;4.26;78.04;97714.41;1804859;77;27726;-84
2021/03/24 11:18:02;;;;;;;84.67;46.02;;;;;;;4.27;78.06;97718.75;1822825;78;25776;-84
2021/03/24 11:20:54;;;;;;;87.08;47.27;;;;;;;4.28;78.09;97714.58;1822377;77;25248;-83
2021/03/24 11:23:38;;;;;;;82.50;47.15;;;;;;;4.31;78.10;97718.27;1823388;78;25718;-84
2021/03/24 11:26:34;;;;;;;81.85;48.15;;;;;;;4.31;78.09;97714.77;1822215;78;25654;-83
2021/03/24 11:29:05;;;;;;;91.45;53.92;;;;;;;4.33;78.07;97720.78;1822613;78;27706;-83
2021/03/24 11:32:08;;;;;;;85.15;49.25;;;;;;;4.34;78.06;97713.11;1822537;78;25659;-83
2021/03/24 11:35:07;;;;;;;88.50;49.77;;;;;;;4.34;77.98;97712.61;1821649;78;25734;-84
2021/03/24 11:37:43;;;;;;;96.95;58.60;;;;;;;4.37;78.01;97711.41;1822659;77;25800;-84
2021/03/24 11:40:37;;;;;;;94.15;53.33;;;;;;;4.40;77.97;97708.92;1822745;78;25717;-83
2021/03/24 11:43:19;;;;;;;76.53;44.42;;;;;;;4.43;77.99;97705.92;1822736;77;28068;-83
2021/03/24 11:45:48;;;;;;;74.30;42.55;;;;;;;4.39;77.87;97702.73;1821956;77;25723;-84
2021/03/24 11:48:34;;;;;;;75.00;44.18;;;;;;;4.37;77.87;97698.05;1822566;78;25631;-83
2021/03/24 11:51:24;;;;;;;81.47;46.00;;;;;;;4.37;77.87;97700.72;1822101;77;25749;-84
2021/03/24 11:54:27;;;;;;;82.35;49.15;;;;;;;4.37;77.87;97699.39;1822581;78;25761;-84
2021/03/24 11:57:02;;;;;;;88.45;45.03;;;;;;;4.41;77.92;97703.41;1822599;77;28428;-84
2021/03/24 11:59:54;;;;;;;81.00;45.52;;;;;;;4.40;77.88;97696.39;1819994;78;25733;-84
2021/03/24 12:05:50;;;;;;;81.83;55.50;;;;;;;4.48;77.84;97692.37;1870691;76;27787;-83
2021/03/24 12:08:22;;;;;;;82.78;49.18;;;;;;;4.56;77.62;97691.06;1857805;77;25703;-83
2021/03/24 12:11:21;;;;;;;125.18;73.45;;;;;;;4.48;77.58;97689.70;1820089;78;27496;-83
2021/03/24 12:13:49;;;;;;;117.10;69.00;;;;;;;4.43;77.74;97694.73;1820017;78;26326;-83
2021/03/24 12:16:20;;;;;;;93.12;55.52;;;;;;;4.41;77.81;97694.06;1820098;77;25653;-83
2021/03/24 12:18:56;;;;;;;82.50;48.45;;;;;;;4.41;77.82;97690.05;1820153;78;25784;-83
2021/03/24 12:21:32;;;;;;;82.27;48.30;;;;;;;4.44;77.88;97696.41;1820115;78;25713;-83
2021/03/24 12:24:06;;;;;;;85.47;48.38;;;;;;;4.47;77.87;97700.06;1819423;77;27488;-83
2021/03/24 12:26:37;;;;;;;82.65;48.63;;;;;;;4.47;77.78;97692.05;1820068;78;25675;-83
2021/03/24 12:29:26;;;;;;;85.25;50.00;;;;;;;4.46;77.70;97694.41;1820047;78;25724;-83
2021/03/24 12:32:01;;;;;;;87.12;49.03;;;;;;;4.43;77.74;97700.08;1820073;77;25776;-83
2021/03/24 12:34:31;;;;;;;81.02;48.20;;;;;;;4.42;77.79;97695.73;1820101;78;25676;-83
2021/03/24 12:37:03;;;;;;;89.05;50.35;;;;;;;4.43;77.76;97697.91;1820120;78;28439;-83
2021/03/24 12:39:40;;;;;;;100.85;55.08;;;;;;;4.43;77.70;97697.91;1820130;78;25709;-83